Time;durP1;ratioP1;P1;durP2;ratioP2;P2;SDS_P1;SDS_P2;PMS_P1;PMS_P2;Temp;Humidity;BMP_temperature;BMP_pressure;BME280_temperature;BME280_humidity;BME280_pressure;Samples;Min_cycle;Max_cycle;Signal;HPM_P1;HPM_P2
2022/11/02 00:01:15;;;;;;;58.58;27.52;;;26.50;99.90;;;;;;5003841;28;20504;-64
2022/11/02 00:03:41;;;;;;;69.63;27.92;;;26.40;99.90;;;;;;4991586;28;20034;-65
2022/11/02 00:06:08;;;;;;;58.92;29.98;;;26.40;99.90;;;;;;5037233;28;20432;-64
2022/11/02 00:08:35;;;;;;;63.65;28.52;;;26.40;99.90;;;;;;5053671;28;20021;-65
2022/11/02 00:11:01;;;;;;;58.35;31.25;;;26.50;99.90;;;;;;5052927;28;20021;-65
2022/11/02 00:13:28;;;;;;;58.13;32.45;;;26.50;99.90;;;;;;5053734;28;20033;-65
2022/11/02 00:15:54;;;;;;;52.88;31.13;;;26.50;99.90;;;;;;5053113;28;20021;-65
2022/11/02 00:18:21;;;;;;;64.60;35.92;;;26.50;99.90;;;;;;5053137;28;20021;-65
2022/11/02 00:20:48;;;;;;;70.20;41.45;;;26.50;99.90;;;;;;5064460;28;20118;-64
2022/11/02 00:23:15;;;;;;;85.68;52.05;;;26.50;99.90;;;;;;5093129;28;20016;-64
2022/11/02 00:25:45;;;;;;;65.20;42.03;;;26.60;99.90;;;;;;5093112;28;20028;-65
2022/11/02 00:28:13;;;;;;;80.32;44.83;;;26.60;99.90;;;;;;5085344;28;20021;-65
2022/11/02 00:30:40;;;;;;;87.63;52.33;;;26.70;99.90;;;;;;5073056;28;20108;-63
2022/11/02 00:33:06;;;;;;;79.07;51.58;;;26.70;99.90;;;;;;5072808;28;20036;-64
2022/11/02 00:35:34;;;;;;;79.20;47.45;;;26.80;99.90;;;;;;5087665;28;20031;-64
2022/11/02 00:38:01;;;;;;;76.93;47.78;;;26.70;99.90;;;;;;5093119;28;20449;-63
2022/11/02 00:40:27;;;;;;;80.13;48.33;;;26.70;99.90;;;;;;5094626;28;20164;-63
2022/11/02 00:42:54;;;;;;;74.72;43.63;;;26.80;99.90;;;;;;5097065;28;20016;-64
2022/11/02 00:45:21;;;;;;;78.60;46.20;;;26.80;99.90;;;;;;5097179;28;20039;-63
2022/11/02 00:47:49;;;;;;;83.20;51.25;;;26.80;99.90;;;;;;5096747;28;20021;-64
2022/11/02 00:50:16;;;;;;;75.72;47.38;;;26.80;99.90;;;;;;5096917;28;20023;-64
2022/11/02 00:52:42;;;;;;;78.75;49.72;;;26.80;99.90;;;;;;5094590;28;20458;-64
2022/11/02 00:55:10;;;;;;;115.43;70.63;;;26.90;99.90;;;;;;5076429;28;20040;-63
2022/11/02 00:57:39;;;;;;;107.20;71.35;;;27.00;99.90;;;;;;5076501;28;20029;-64
2022/11/02 01:00:07;;;;;;;90.07;58.38;;;27.00;99.90;;;;;;5076457;28;20020;-64
2022/11/02 01:02:34;;;;;;;82.60;57.58;;;27.10;99.90;;;;;;5076402;28;20024;-64
2022/11/02 01:05:00;;;;;;;91.60;55.38;;;27.20;99.90;;;;;;5076221;28;20389;-64
2022/11/02 01:07:28;;;;;;;90.70;54.78;;;27.30;99.90;;;;;;5076277;28;20466;-64
2022/11/02 01:09:54;;;;;;;93.55;59.50;;;27.30;99.90;;;;;;5076232;28;20108;-64
2022/11/02 01:12:21;;;;;;;93.40;60.42;;;27.40;99.90;;;;;;5076378;28;20473;-64
2022/11/02 01:14:49;;;;;;;85.60;55.67;;;27.40;99.90;;;;;;5076130;28;20469;-64
2022/11/02 01:17:17;;;;;;;87.95;56.20;;;27.50;99.90;;;;;;5076067;28;20021;-64
2022/11/02 01:19:44;;;;;;;94.85;63.22;;;27.50;99.90;;;;;;5076098;28;20040;-64
2022/11/02 01:22:10;;;;;;;109.13;67.10;;;27.50;99.90;;;;;;5076035;28;20025;-64
2022/11/02 01:24:37;;;;;;;111.30;67.53;;;27.40;99.90;;;;;;5075755;28;20064;-64
2022/11/02 01:27:03;;;;;;;115.82;67.70;;;27.50;99.90;;;;;;5076144;28;20079;-65
2022/11/02 01:29:30;;;;;;;110.40;70.75;;;27.60;99.90;;;;;;5075843;28;20052;-64
2022/11/02 01:31:56;;;;;;;122.45;71.47;;;27.60;99.90;;;;;;5075865;28;20539;-64
2022/11/02 01:34:23;;;;;;;121.35;70.43;;;27.70;99.90;;;;;;5075817;28;20043;-64
2022/11/02 01:36:49;;;;;;;110.03;67.88;;;27.80;99.90;;;;;;5075806;28;20031;-64
2022/11/02 01:39:16;;;;;;;107.40;68.93;;;27.90;99.90;;;;;;5075715;28;20020;-64
2022/11/02 01:41:43;;;;;;;105.32;65.18;;;28.00;99.90;;;;;;5075898;28;20115;-64
2022/11/02 01:44:27;;;;;;;121.90;71.93;;;28.00;99.90;;;;;;5075644;28;20027;-64
2022/11/02 01:47:07;;;;;;;110.38;70.65;;;28.10;99.90;;;;;;5075641;28;20385;-64
2022/11/02 01:49:38;;;;;;;127.82;72.68;;;28.20;99.90;;;;;;5075606;28;20021;-65
2022/11/02 01:52:12;;;;;;;127.65;74.60;;;28.20;99.90;;;;;;5074798;28;20027;-64
2022/11/02 01:54:45;;;;;;;117.55;69.38;;;28.30;99.90;;;;;;5075474;28;20028;-64
2022/11/02 01:57:16;;;;;;;115.38;68.35;;;28.50;99.90;;;;;;5075364;28;20028;-64
2022/11/02 01:59:49;;;;;;;167.40;123.78;;;28.60;99.90;;;;;;5075649;28;20021;-64
2022/11/02 02:02:19;;;;;;;113.13;69.60;;;28.60;99.90;;;;;;5091380;28;20020;-65
2022/11/02 02:04:51;;;;;;;98.95;64.95;;;28.70;99.90;;;;;;5095110;28;20023;-65
2022/11/02 02:07:19;;;;;;;108.93;63.72;;;28.70;99.90;;;;;;5093585;28;20663;-64
2022/11/02 02:09:46;;;;;;;91.72;55.33;;;28.80;99.90;;;;;;5093434;28;20487;-64
2022/11/02 02:12:12;;;;;;;83.35;53.67;;;28.90;99.90;;;;;;5093634;28;20100;-65
2022/11/02 02:14:39;;;;;;;85.72;55.45;;;29.00;99.90;;;;;;5094333;28;20028;-65
2022/11/02 02:17:11;;;;;;;81.07;52.08;;;29.00;99.90;;;;;;5094458;28;20034;-65
2022/11/02 02:19:38;;;;;;;75.45;50.13;;;28.90;99.90;;;;;;5095174;28;20594;-65
2022/11/02 02:22:05;;;;;;;67.38;41.33;;;28.90;99.90;;;;;;5094953;28;20028;-65
2022/11/02 02:24:36;;;;;;;75.78;47.63;;;28.80;99.90;;;;;;5094868;28;20047;-65
2022/11/02 02:27:17;;;;;;;72.70;57.28;;;28.80;99.90;;;;;;5095032;28;20024;-65
2022/11/02 02:29:57;;;;;;;49.60;34.72;;;28.80;99.90;;;;;;5094904;28;20028;-65
2022/11/02 02:32:49;;;;;;;59.22;36.95;;;28.80;99.90;;;;;;5094906;28;20028;-64
2022/11/02 02:35:35;;;;;;;58.00;43.35;;;28.80;99.90;;;;;;5088301;28;20030;-65
2022/11/02 02:38:08;;;;;;;71.45;45.25;;;28.90;99.90;;;;;;5054389;28;20473;-64
2022/11/02 02:40:39;;;;;;;67.65;45.95;;;28.80;99.90;;;;;;5054559;28;20444;-65
2022/11/02 02:43:10;;;;;;;178.13;159.13;;;28.80;99.90;;;;;;5054648;28;20108;-64
2022/11/02 02:45:36;;;;;;;398.67;358.83;;;28.90;99.90;;;;;;5054472;28;20013;-65
2022/11/02 02:48:15;;;;;;;101.93;79.97;;;29.10;99.90;;;;;;5054537;28;20021;-64
2022/11/02 02:50:48;;;;;;;91.25;69.43;;;29.30;99.90;;;;;;5085176;28;20015;-66
2022/11/02 02:53:18;;;;;;;74.25;53.13;;;29.50;99.90;;;;;;5084699;28;20021;-65
2022/11/02 02:55:47;;;;;;;73.72;49.22;;;29.60;99.90;;;;;;5090114;28;20388;-63
2022/11/02 02:58:19;;;;;;;65.38;48.10;;;29.70;99.90;;;;;;5089776;28;20067;-63
2022/11/02 03:00:46;;;;;;;74.75;50.08;;;29.80;99.90;;;;;;5087935;28;20016;-64
2022/11/02 03:03:24;;;;;;;83.47;65.85;;;30.20;99.90;;;;;;5081661;28;20056;-64
2022/11/02 03:06:06;;;;;;;68.80;55.05;;;30.30;99.90;;;;;;5081939;28;20030;-63
2022/11/02 03:08:37;;;;;;;189.67;169.67;;;30.40;99.90;;;;;;5082176;28;20075;-63
2022/11/02 03:11:13;;;;;;;59.28;41.60;;;30.50;99.90;;;;;;5087923;28;20298;-64
2022/11/02 03:13:49;;;;;;;55.20;42.58;;;30.50;99.90;;;;;;5094417;28;20303;-64
2022/11/02 03:16:36;;;;;;;56.53;42.05;;;30.40;99.90;;;;;;5094513;28;20454;-64
2022/11/02 03:19:23;;;;;;;57.90;44.90;;;30.50;99.90;;;;;;4992627;28;20030;-64
2022/11/02 03:22:00;;;;;;;61.40;43.58;;;30.30;99.90;;;;;;4992749;28;20026;-64
2022/11/02 03:24:50;;;;;;;61.97;44.30;;;30.20;99.90;;;;;;4992272;28;20070;-64
2022/11/02 03:27:24;;;;;;;46.72;35.95;;;30.40;99.90;;;;;;4934410;29;20042;-64
2022/11/02 03:30:09;;;;;;;52.30;37.08;;;30.60;99.90;;;;;;4934474;29;20039;-62
2022/11/02 03:32:51;;;;;;;49.10;37.05;;;30.70;99.90;;;;;;4934649;29;20090;-61
2022/11/02 03:35:36;;;;;;;49.42;38.78;;;30.80;99.90;;;;;;4934275;29;20031;-62
2022/11/02 03:38:18;;;;;;;52.95;40.92;;;30.80;99.90;;;;;;4934284;29;20028;-61
2022/11/02 03:40:46;;;;;;;;;;;31.10;99.90;;;;;;4934605;29;20493;-61
2022/11/02 03:43:14;;;;;;;70.30;53.80;;;31.10;99.90;;;;;;4934100;29;19918;-62
2022/11/02 03:45:49;;;;;;;74.43;55.17;;;31.20;99.90;;;;;;4934227;29;20088;-62
2022/11/02 03:48:17;;;;;;;87.03;61.17;;;31.20;99.90;;;;;;4934246;29;20024;-60
2022/11/02 03:50:48;;;;;;;100.25;69.78;;;31.20;99.90;;;;;;4987592;28;20042;-60
2022/11/02 03:53:36;;;;;;;147.32;125.97;;;31.10;99.90;;;;;;4989925;28;20835;-60
2022/11/02 03:56:07;;;;;;;99.72;69.28;;;31.20;99.90;;;;;;4989724;28;20073;-60
2022/11/02 03:58:35;;;;;;;245.93;215.10;;;31.10;99.90;;;;;;4989610;28;20081;-59
2022/11/02 04:01:06;;;;;;;100.97;81.20;;;31.00;99.90;;;;;;4989669;28;20033;-59
2022/11/02 04:03:35;;;;;;;94.50;70.13;;;30.90;99.90;;;;;;5006294;28;20130;-60
2022/11/02 04:06:02;;;;;;;133.13;107.28;;;31.00;99.90;;;;;;5091544;28;20016;-61
2022/11/02 04:08:40;;;;;;;115.88;85.80;;;30.90;99.90;;;;;;5092959;28;20032;-62
2022/11/02 04:16:40;;;;;;;87.28;66.07;;;31.10;99.90;;;;;;5092963;28;20465;-61
2022/11/02 04:27:28;;;;;;;83.43;66.50;;;31.30;99.90;;;;;;5080315;28;20021;-61
2022/11/02 04:29:54;;;;;;;90.03;66.07;;;31.40;99.90;;;;;;5082573;28;20391;-63
2022/11/02 04:35:08;;;;;;;109.72;82.55;;;31.70;99.90;;;;;;5082399;28;20180;-62
2022/11/02 04:40:30;;;;;;;67.97;56.50;;;31.80;99.90;;;;;;5072637;28;20025;-61
2022/11/02 04:42:56;;;;;;;85.50;62.47;;;32.00;99.90;;;;;;5072704;28;20086;-60
2022/11/02 04:45:23;;;;;;;88.50;64.63;;;31.90;99.90;;;;;;5072866;28;20028;-61
2022/11/02 04:47:49;;;;;;;74.38;59.38;;;31.80;99.90;;;;;;5072612;28;20230;-61
2022/11/02 04:50:16;;;;;;;122.65;94.43;;;31.70;99.90;;;;;;5073179;28;20044;-61
2022/11/02 04:52:42;;;;;;;81.93;64.50;;;31.60;99.90;;;;;;5072831;28;20019;-61
2022/11/02 04:55:09;;;;;;;109.78;83.70;;;31.80;99.90;;;;;;5075137;28;20495;-61
2022/11/02 04:57:36;;;;;;;89.28;67.47;;;31.80;99.90;;;;;;5075236;28;20107;-61
2022/11/02 05:00:06;;;;;;;90.68;66.65;;;31.60;99.90;;;;;;5072786;28;20052;-63
2022/11/02 05:02:32;;;;;;;86.47;64.85;;;31.50;99.90;;;;;;5072537;28;20047;-62
2022/11/02 05:04:59;;;;;;;72.70;60.42;;;31.50;99.90;;;;;;5082651;28;20025;-62
2022/11/02 05:07:25;;;;;;;87.63;65.38;;;31.50;99.90;;;;;;5082726;28;20055;-62
2022/11/02 05:09:52;;;;;;;76.50;57.17;;;31.50;99.90;;;;;;5084216;28;20525;-62
2022/11/02 05:12:18;;;;;;;72.15;60.50;;;31.50;99.90;;;;;;5082027;28;20020;-62
2022/11/02 05:14:45;;;;;;;71.38;60.28;;;31.60;99.90;;;;;;5085920;28;20031;-61
2022/11/02 05:17:12;;;;;;;71.70;59.47;;;31.70;99.90;;;;;;5085000;28;20036;-63
2022/11/02 05:19:38;;;;;;;67.28;52.47;;;31.90;99.90;;;;;;5074992;28;20024;-63
2022/11/02 05:22:05;;;;;;;74.70;57.50;;;31.90;99.90;;;;;;5078130;28;20017;-65
2022/11/02 05:24:31;;;;;;;72.13;58.38;;;31.90;99.90;;;;;;5072448;28;20045;-62
2022/11/02 05:26:59;;;;;;;64.43;54.90;;;31.90;99.90;;;;;;5073365;28;20107;-62
2022/11/02 05:29:26;;;;;;;80.97;61.42;;;32.00;99.90;;;;;;5086420;28;20210;-63
2022/11/02 05:31:52;;;;;;;78.15;64.38;;;32.10;99.90;;;;;;5101735;22;20044;-63
2022/11/02 05:34:19;;;;;;;72.50;57.50;;;32.20;99.90;;;;;;5068922;28;20040;-61
2022/11/02 05:36:48;;;;;;;64.30;51.90;;;32.20;99.90;;;;;;5070189;28;20013;-62
2022/11/02 05:39:14;;;;;;;71.20;49.83;;;32.30;99.90;;;;;;5065882;28;20434;-62
2022/11/02 05:41:41;;;;;;;75.53;52.55;;;32.20;99.90;;;;;;5065428;28;20024;-62
2022/11/02 05:44:07;;;;;;;64.20;51.78;;;32.20;99.90;;;;;;5063971;28;20037;-62
2022/11/02 05:46:34;;;;;;;62.83;47.95;;;32.10;99.90;;;;;;5065915;28;20051;-62
2022/11/02 05:49:00;;;;;;;60.15;50.25;;;32.00;99.90;;;;;;5065201;28;20017;-62
2022/11/02 05:51:27;;;;;;;66.45;50.13;;;32.00;99.90;;;;;;5064043;28;20071;-62
2022/11/02 05:53:54;;;;;;;66.22;54.55;;;32.00;99.90;;;;;;5065969;28;20033;-62
2022/11/02 05:56:21;;;;;;;74.63;58.53;;;31.90;99.90;;;;;;5065066;28;20025;-62
2022/11/02 05:58:47;;;;;;;81.03;60.47;;;32.00;99.90;;;;;;5063963;28;20025;-62
2022/11/02 06:01:14;;;;;;;84.00;61.83;;;32.00;99.90;;;;;;5065529;28;20033;-62
2022/11/02 06:03:40;;;;;;;74.05;60.08;;;31.90;99.90;;;;;;5064792;28;20032;-63
2022/11/02 06:06:09;;;;;;;79.22;62.38;;;31.80;99.90;;;;;;5070847;28;20021;-63
2022/11/02 06:08:37;;;;;;;74.97;63.28;;;31.90;99.90;;;;;;5072479;28;20021;-63
2022/11/02 06:11:07;;;;;;;73.32;61.78;;;31.90;99.90;;;;;;5068401;28;20162;-62
2022/11/02 06:13:34;;;;;;;77.35;62.28;;;32.00;99.90;;;;;;5065412;28;20031;-61
2022/11/02 06:16:05;;;;;;;78.07;58.72;;;32.00;99.90;;;;;;5062726;28;20031;-62
2022/11/02 06:18:31;;;;;;;70.90;57.55;;;32.00;99.90;;;;;;5063286;28;20182;-63
2022/11/02 06:20:58;;;;;;;63.67;49.22;;;32.10;99.90;;;;;;5064671;28;20493;-62
2022/11/02 06:23:25;;;;;;;65.03;48.88;;;32.20;99.90;;;;;;5063793;28;20485;-63
2022/11/02 06:25:53;;;;;;;67.68;49.80;;;32.20;99.90;;;;;;5062844;28;20021;-62
2022/11/02 06:28:21;;;;;;;61.40;44.50;;;32.30;99.90;;;;;;5064683;28;20021;-62
2022/11/02 06:30:48;;;;;;;54.80;44.60;;;32.40;99.90;;;;;;5065005;28;20402;-62
2022/11/02 06:33:15;;;;;;;48.75;40.72;;;32.50;99.90;;;;;;5062556;28;20098;-61
2022/11/02 06:35:48;;;;;;;45.78;38.83;;;32.30;99.90;;;;;;5063956;28;20100;-62
2022/11/02 06:38:15;;;;;;;54.60;43.40;;;32.20;99.90;;;;;;5068451;28;20024;-64
2022/11/02 06:40:42;;;;;;;50.05;40.05;;;32.30;99.90;;;;;;5065218;28;20013;-63
2022/11/02 06:43:10;;;;;;;46.35;36.45;;;32.30;99.90;;;;;;5065644;28;20083;-63
2022/11/02 06:45:37;;;;;;;42.65;34.25;;;32.30;99.90;;;;;;5061535;28;20029;-63
2022/11/02 06:48:03;;;;;;;42.65;34.08;;;32.40;99.90;;;;;;5059325;28;20470;-63
2022/11/02 06:50:30;;;;;;;42.55;34.53;;;32.30;99.90;;;;;;5059299;28;20033;-63
2022/11/02 06:52:56;;;;;;;44.75;33.95;;;32.30;99.90;;;;;;5062901;28;20032;-62
2022/11/02 06:55:23;;;;;;;47.13;32.67;;;32.40;99.90;;;;;;5061786;28;20481;-62
2022/11/02 06:57:50;;;;;;;43.03;38.03;;;32.50;99.90;;;;;;5070807;28;20458;-62
2022/11/02 07:00:16;;;;;;;48.13;37.95;;;32.30;99.90;;;;;;5070794;28;20017;-62
2022/11/02 07:02:44;;;;;;;48.30;42.17;;;32.30;99.90;;;;;;5069247;28;20100;-62
2022/11/02 07:05:11;;;;;;;49.35;43.17;;;32.30;99.90;;;;;;5071408;28;20551;-62
2022/11/02 07:07:38;;;;;;;54.78;42.20;;;32.20;99.90;;;;;;5053884;28;20392;-62
2022/11/02 07:10:09;;;;;;;46.20;41.17;;;32.20;99.90;;;;;;5072369;28;20099;-63
2022/11/02 07:12:35;;;;;;;49.53;42.78;;;32.20;99.90;;;;;;5062597;28;20103;-63
2022/11/02 07:15:02;;;;;;;60.28;43.10;;;32.30;99.90;;;;;;5068058;28;20434;-62
2022/11/02 07:17:28;;;;;;;56.05;40.90;;;32.40;99.90;;;;;;5073898;28;20032;-62
2022/11/02 07:19:55;;;;;;;169.23;96.35;;;32.40;99.90;;;;;;5073989;28;20017;-63
2022/11/02 07:22:21;;;;;;;94.07;64.90;;;32.60;99.90;;;;;;5073806;28;20032;-63
2022/11/02 07:24:48;;;;;;;47.88;39.08;;;32.70;99.90;;;;;;5073722;28;20028;-62
2022/11/02 07:27:14;;;;;;;49.75;38.05;;;32.70;99.90;;;;;;5073700;28;20103;-62
2022/11/02 07:29:41;;;;;;;45.42;37.55;;;32.70;99.90;;;;;;5073794;28;20017;-62
2022/11/02 07:32:07;;;;;;;50.85;43.20;;;32.70;99.90;;;;;;5073202;28;20047;-62
2022/11/02 07:34:34;;;;;;;187.77;144.88;;;32.70;99.90;;;;;;5068676;28;20027;-61
2022/11/02 07:37:00;;;;;;;59.53;48.97;;;32.70;99.90;;;;;;5062376;28;20035;-62
2022/11/02 07:39:27;;;;;;;54.90;46.95;;;32.80;99.90;;;;;;5073681;28;20362;-62
2022/11/02 07:41:53;;;;;;;52.95;44.63;;;32.80;99.90;;;;;;5073873;28;20039;-62
2022/11/02 07:44:20;;;;;;;54.92;44.30;;;32.70;99.90;;;;;;5074221;28;20078;-63
2022/11/02 07:46:46;;;;;;;55.72;43.97;;;32.70;99.90;;;;;;5073964;28;20025;-62
2022/11/02 07:49:13;;;;;;;54.88;42.05;;;32.80;99.90;;;;;;5073780;28;20047;-62
2022/11/02 07:51:39;;;;;;;44.05;37.72;;;32.90;99.90;;;;;;5073471;28;20021;-62
2022/11/02 07:54:06;;;;;;;66.70;46.53;;;32.90;99.90;;;;;;5067736;28;20082;-61
2022/11/02 07:56:32;;;;;;;59.05;37.15;;;33.00;99.90;;;;;;5064473;28;20025;-62
2022/11/02 07:58:59;;;;;;;42.83;32.40;;;33.20;99.90;;;;;;5070467;28;20107;-62
2022/11/02 08:01:26;;;;;;;45.78;34.30;;;33.40;99.90;;;;;;5065102;28;20035;-62
2022/11/02 08:03:53;;;;;;;42.70;35.75;;;33.30;99.90;;;;;;5069081;28;20093;-62
2022/11/02 08:06:20;;;;;;;181.65;141.27;;;33.20;99.90;;;;;;5063751;28;20025;-63
2022/11/02 08:08:47;;;;;;;51.33;41.03;;;33.20;99.90;;;;;;5063777;28;20419;-62
2022/11/02 08:11:13;;;;;;;59.60;46.78;;;33.20;99.90;;;;;;5057983;28;20367;-62
2022/11/02 08:13:40;;;;;;;50.17;40.60;;;33.20;99.90;;;;;;5056968;28;20023;-62
2022/11/02 08:16:06;;;;;;;78.82;55.30;;;33.20;99.90;;;;;;5066273;28;20036;-63
2022/11/02 08:18:33;;;;;;;72.15;50.67;;;33.30;99.90;;;;;;5067810;28;20027;-63
2022/11/02 08:21:00;;;;;;;47.25;35.28;;;33.30;99.90;;;;;;5067210;28;20104;-63
2022/11/02 08:23:26;;;;;;;67.63;46.08;;;33.30;99.90;;;;;;5067649;28;20107;-63
2022/11/02 08:25:54;;;;;;;76.47;48.35;;;33.30;99.90;;;;;;5062700;28;20037;-63
2022/11/02 08:28:23;;;;;;;44.05;36.42;;;33.40;99.90;;;;;;5067572;28;20389;-63
2022/11/02 08:30:51;;;;;;;164.20;101.78;;;33.30;99.90;;;;;;5067573;28;20055;-63
2022/11/02 08:33:18;;;;;;;128.85;82.15;;;33.20;99.90;;;;;;5067168;28;20044;-62
2022/11/02 08:35:46;;;;;;;171.90;106.97;;;33.20;99.90;;;;;;5067289;28;20442;-63
2022/11/02 08:38:13;;;;;;;52.75;41.53;;;33.20;99.90;;;;;;5067381;28;20024;-63
2022/11/02 08:40:40;;;;;;;43.83;35.00;;;33.20;99.90;;;;;;5066238;28;20032;-63
2022/11/02 08:43:09;;;;;;;40.53;32.85;;;33.20;99.90;;;;;;5065429;28;20440;-62
2022/11/02 08:45:38;;;;;;;52.40;37.40;;;33.20;99.90;;;;;;5063514;28;20032;-62
2022/11/02 08:48:05;;;;;;;51.13;35.72;;;33.20;99.90;;;;;;5053146;28;20051;-62
2022/11/02 08:50:34;;;;;;;41.47;31.27;;;33.10;99.90;;;;;;5053053;28;20099;-62
2022/11/02 08:53:01;;;;;;;41.42;28.55;;;33.10;99.90;;;;;;5053110;28;20344;-62
2022/11/02 08:55:27;;;;;;;35.17;27.55;;;33.10;99.90;;;;;;5053057;28;20086;-62
2022/11/02 08:57:56;;;;;;;38.78;27.42;;;33.10;99.90;;;;;;5052807;28;20432;-63
2022/11/02 09:00:27;;;;;;;41.10;29.92;;;33.10;99.90;;;;;;5052638;28;20029;-62
2022/11/02 09:03:13;;;;;;;37.65;28.63;;;33.10;99.90;;;;;;5055863;28;20029;-63
2022/11/02 09:05:43;;;;;;;45.88;29.20;;;33.00;99.90;;;;;;5067327;28;20021;-62
2022/11/02 09:08:15;;;;;;;37.05;27.50;;;33.00;99.90;;;;;;5076372;28;20074;-62
2022/11/02 09:10:42;;;;;;;40.47;31.73;;;33.00;99.90;;;;;;5076022;28;20428;-62
2022/11/02 09:13:12;;;;;;;92.38;79.05;;;32.90;99.90;;;;;;5074955;28;20024;-62
2022/11/02 09:15:39;;;;;;;111.82;88.63;;;32.90;99.90;;;;;;5075435;28;20389;-63
2022/11/02 09:18:07;;;;;;;70.95;55.20;;;32.90;99.90;;;;;;5075857;28;20070;-62
2022/11/02 09:20:34;;;;;;;166.57;98.80;;;32.90;99.90;;;;;;5075919;28;20059;-63
2022/11/02 09:23:00;;;;;;;75.00;43.60;;;32.90;99.90;;;;;;5074495;28;20028;-63
2022/11/02 09:25:27;;;;;;;98.00;55.85;;;32.90;99.90;;;;;;5074638;28;20013;-63
2022/11/02 09:27:55;;;;;;;59.63;40.05;;;32.90;99.90;;;;;;5073703;28;20035;-63
2022/11/02 09:30:23;;;;;;;61.13;41.38;;;32.90;99.90;;;;;;5073984;28;20024;-62
2022/11/02 09:33:01;;;;;;;77.68;45.67;;;32.80;99.90;;;;;;5073854;28;20052;-62
2022/11/02 09:35:31;;;;;;;80.75;56.13;;;32.80;99.90;;;;;;5073970;28;20028;-62
2022/11/02 09:37:58;;;;;;;194.07;118.28;;;32.70;99.90;;;;;;5075659;28;20032;-62
2022/11/02 09:40:28;;;;;;;156.35;94.78;;;32.70;99.90;;;;;;5075827;28;20435;-63
2022/11/02 09:43:16;;;;;;;135.77;80.97;;;32.70;99.90;;;;;;5075907;28;20021;-64
2022/11/02 09:45:52;;;;;;;69.47;46.75;;;32.70;99.90;;;;;;5074791;28;20060;-63
2022/11/02 09:48:24;;;;;;;69.53;46.53;;;32.60;99.90;;;;;;5065088;28;20028;-62
2022/11/02 09:51:03;;;;;;;67.72;47.38;;;32.30;99.90;;;;;;5075593;28;20025;-62
2022/11/02 09:53:50;;;;;;;53.88;42.90;;;31.80;99.90;;;;;;5075746;28;20039;-62
2022/11/02 09:56:19;;;;;;;49.83;39.42;;;31.50;99.90;;;;;;5069381;28;20024;-63
2022/11/02 09:58:55;;;;;;;60.80;43.70;;;31.40;99.90;;;;;;5073596;28;20488;-63
2022/11/02 10:01:22;;;;;;;49.58;39.50;;;31.40;99.90;;;;;;5055132;28;20071;-63
2022/11/02 10:03:53;;;;;;;48.35;39.78;;;31.30;99.90;;;;;;5055210;28;20078;-63
2022/11/02 10:06:22;;;;;;;63.17;43.15;;;31.20;99.90;;;;;;5055475;28;20025;-63
2022/11/02 10:09:15;;;;;;;72.38;44.33;;;31.20;99.90;;;;;;5055150;28;20409;-64
2022/11/02 10:12:13;;;;;;;75.45;43.90;;;31.30;99.90;;;;;;5054984;28;20021;-65
2022/11/02 10:14:59;;;;;;;51.60;42.83;;;31.30;99.90;;;;;;5054632;28;20033;-65
2022/11/02 10:17:29;;;;;;;64.22;45.15;;;31.20;99.90;;;;;;5055206;28;20049;-64
2022/11/02 10:19:59;;;;;;;69.32;51.95;;;31.20;99.90;;;;;;5055150;28;20025;-65
2022/11/02 10:22:32;;;;;;;58.85;43.80;;;31.10;99.90;;;;;;5065758;28;20548;-64
2022/11/02 10:25:03;;;;;;;47.53;32.53;;;31.00;99.90;;;;;;5075204;28;20073;-64
2022/11/02 10:27:36;;;;;;;63.63;43.92;;;31.00;99.90;;;;;;5068604;28;20103;-65
2022/11/02 10:30:06;;;;;;;54.65;36.17;;;30.90;99.90;;;;;;5062246;28;20029;-64
2022/11/02 10:32:35;;;;;;;52.88;32.92;;;30.80;99.90;;;;;;5054510;28;20056;-64
2022/11/02 10:35:09;;;;;;;54.58;33.65;;;30.80;99.90;;;;;;5054611;28;20057;-63
2022/11/02 10:37:41;;;;;;;51.78;34.22;;;30.70;99.90;;;;;;5054898;28;20028;-63
2022/11/02 10:40:18;;;;;;;54.65;35.25;;;30.60;99.90;;;;;;5054886;28;20040;-64
2022/11/02 10:42:57;;;;;;;53.28;34.15;;;30.60;99.90;;;;;;5055061;28;20028;-64
2022/11/02 10:45:42;;;;;;;63.28;42.08;;;30.60;99.90;;;;;;5054770;28;20033;-63
2022/11/02 10:48:24;;;;;;;74.45;49.33;;;30.60;99.90;;;;;;5054712;28;20021;-64
2022/11/02 10:50:57;;;;;;;73.70;49.00;;;30.50;99.90;;;;;;5054903;28;20060;-65
2022/11/02 10:53:23;;;;;;;67.47;46.00;;;30.50;99.90;;;;;;5059685;28;20249;-64
2022/11/02 10:56:14;;;;;;;74.18;47.05;;;30.50;99.90;;;;;;5064346;28;20123;-65
2022/11/02 10:58:49;;;;;;;67.72;45.90;;;30.40;99.90;;;;;;5064029;28;20078;-63
2022/11/02 11:01:16;;;;;;;54.53;38.45;;;30.40;99.90;;;;;;5070033;28;20029;-63
2022/11/02 11:03:55;;;;;;;87.53;55.65;;;30.30;99.90;;;;;;5073756;28;20085;-63
2022/11/02 11:06:27;;;;;;;78.38;48.00;;;30.30;99.90;;;;;;5072420;28;20028;-62
2022/11/02 11:09:00;;;;;;;56.55;41.47;;;30.30;99.90;;;;;;5065296;28;20038;-63
2022/11/02 11:11:32;;;;;;;56.88;38.13;;;30.10;99.90;;;;;;5074282;28;20543;-63
2022/11/02 11:14:04;;;;;;;55.70;42.45;;;30.00;99.90;;;;;;5074305;28;20031;-62
2022/11/02 11:16:35;;;;;;;70.63;44.28;;;30.00;99.90;;;;;;5074464;28;20032;-63
2022/11/02 11:19:04;;;;;;;60.58;40.28;;;30.10;99.90;;;;;;5074085;28;20428;-63
2022/11/02 11:21:40;;;;;;;58.35;40.38;;;29.90;99.90;;;;;;5073970;28;20028;-62
2022/11/02 11:24:28;;;;;;;66.65;45.03;;;29.80;99.90;;;;;;5074090;28;20031;-63
2022/11/02 11:27:16;;;;;;;52.78;37.97;;;29.80;99.90;;;;;;4991952;28;20117;-63
2022/11/02 11:30:02;;;;;;;55.13;34.75;;;29.90;99.90;;;;;;4915172;29;20040;-63
2022/11/02 11:32:29;;;;;;;58.55;36.33;;;29.80;99.90;;;;;;4915059;29;20052;-63
2022/11/02 11:35:17;;;;;;;55.90;41.17;;;29.80;99.90;;;;;;4914717;29;20421;-63
2022/11/02 11:37:58;;;;;;;86.97;61.05;;;29.70;99.90;;;;;;4908764;29;20179;-63
2022/11/02 11:40:31;;;;;;;111.93;82.90;;;29.50;99.90;;;;;;4915026;29;20489;-62
2022/11/02 11:42:58;;;;;;;49.42;38.25;;;29.50;99.90;;;;;;4915207;29;20044;-62
2022/11/02 11:45:26;;;;;;;91.70;70.85;;;29.50;99.90;;;;;;4914888;29;20048;-62
2022/11/02 11:48:00;;;;;;;155.75;119.80;;;29.50;99.90;;;;;;4914222;29;20028;-62
2022/11/02 11:50:26;;;;;;;275.88;187.48;;;29.50;99.90;;;;;;4915244;29;20668;-62
2022/11/02 11:53:13;;;;;;;200.15;128.13;;;29.40;99.90;;;;;;4914303;29;20043;-63
2022/11/02 11:55:51;;;;;;;232.23;154.52;;;29.30;99.90;;;;;;4917502;29;20036;-65
2022/11/02 11:58:17;;;;;;;244.32;149.88;;;29.30;99.90;;;;;;4913284;29;20545;-64
2022/11/02 12:00:44;;;;;;;222.45;136.18;;;29.30;99.90;;;;;;4961535;28;20038;-63
2022/11/02 12:03:12;;;;;;;141.50;90.88;;;29.20;99.90;;;;;;4997042;28;20120;-63
2022/11/02 12:05:41;;;;;;;213.77;127.97;;;29.10;99.90;;;;;;5059257;28;20031;-64
2022/11/02 12:08:16;;;;;;;127.97;77.05;;;29.10;99.90;;;;;;5057756;28;20021;-63
2022/11/02 12:11:04;;;;;;;151.93;90.25;;;29.10;99.90;;;;;;5060095;28;20432;-64
2022/11/02 12:13:50;;;;;;;154.40;92.97;;;29.00;99.90;;;;;;5066247;28;20090;-66
2022/11/02 12:16:29;;;;;;;118.20;70.22;;;29.00;99.90;;;;;;5066402;28;20032;-64
2022/11/02 12:19:23;;;;;;;115.32;75.03;;;29.10;99.90;;;;;;5066457;28;20034;-65
2022/11/02 12:22:11;;;;;;;106.90;67.38;;;29.10;99.90;;;;;;4951001;29;20047;-65
2022/11/02 12:25:00;;;;;;;108.70;67.90;;;29.20;99.90;;;;;;4902421;29;20087;-65
2022/11/02 12:27:33;;;;;;;69.80;39.90;;;29.30;99.90;;;;;;4900732;29;20062;-65
2022/11/02 12:30:03;;;;;;;109.90;72.38;;;29.30;99.90;;;;;;4901363;29;20123;-64
2022/11/02 12:32:37;;;;;;;102.85;63.83;;;29.20;99.90;;;;;;4898797;29;20443;-65
2022/11/02 12:35:42;;;;;;;78.03;51.65;;;29.20;99.90;;;;;;4892912;29;20029;-65
2022/11/02 12:38:35;;;;;;;79.80;45.08;;;29.20;99.90;;;;;;4896465;29;20525;-63
2022/11/02 12:45:08;;;;;;;58.10;38.05;;;29.00;99.90;;;;;;4849069;29;20094;-66
2022/11/02 12:47:58;;;;;;;53.58;37.22;;;29.00;99.90;;;;;;4805109;29;20073;-65
2022/11/02 12:50:37;;;;;;;79.00;53.50;;;28.90;99.90;;;;;;4848817;29;20542;-64
2022/11/02 12:53:32;;;;;;;69.55;50.17;;;28.90;99.90;;;;;;4849335;29;20194;-64
2022/11/02 12:56:04;;;;;;;97.95;62.17;;;29.00;99.90;;;;;;4859441;29;20178;-65
2022/11/02 12:58:36;;;;;;;179.63;93.63;;;29.00;99.90;;;;;;4865434;29;20037;-66
2022/11/02 13:01:06;;;;;;;;;;;29.00;99.90;;;;;;4862246;29;20045;-64
2022/11/02 13:03:58;;;;;;;75.53;47.35;;;28.90;99.90;;;;;;4860915;29;19912;-65
2022/11/02 13:06:33;;;;;;;88.72;52.55;;;28.80;99.90;;;;;;4861586;29;20094;-63
2022/11/02 13:09:20;;;;;;;71.18;42.10;;;28.80;99.90;;;;;;4865760;29;20540;-64